createdAt,value
2019-05-07T00:01:03.644Z,8.40
2019-05-07T00:03:33.343Z,8.40
2019-05-07T00:06:03.259Z,8.40
2019-05-07T00:08:33.048Z,8.40
2019-05-07T00:11:02.950Z,8.40
2019-05-07T00:13:33.327Z,8.40
2019-05-07T00:16:03.249Z,8.40
2019-05-07T00:18:32.977Z,8.40
2019-05-07T00:21:03.515Z,8.40
2019-05-07T00:23:33.388Z,8.40
2019-05-07T00:26:04.066Z,8.40
2019-05-07T00:28:34.556Z,8.40
2019-05-07T00:31:04.263Z,8.40
2019-05-07T00:33:35.164Z,8.40
2019-05-07T00:36:09.154Z,8.40
2019-05-07T00:38:45.899Z,8.40
2019-05-07T00:41:22.936Z,8.40
2019-05-07T00:43:54.220Z,8.40
2019-05-07T00:46:25.816Z,8.40
2019-05-07T00:48:55.513Z,8.40
2019-05-07T00:51:33.354Z,8.40
2019-05-07T00:54:06.438Z,8.40
2019-05-07T00:56:36.104Z,8.40
2019-05-07T00:59:05.986Z,8.40
2019-05-07T01:01:36.567Z,8.30
2019-05-07T01:04:06.474Z,8.30
2019-05-07T01:06:36.279Z,8.30
2019-05-07T01:09:08.216Z,8.30
2019-05-07T01:11:37.907Z,8.30
2019-05-07T01:14:07.717Z,8.30
2019-05-07T01:16:37.407Z,8.20
2019-05-07T01:19:07.058Z,8.20
2019-05-07T01:21:36.778Z,8.30
2019-05-07T01:24:06.576Z,8.20
2019-05-07T01:26:36.269Z,8.20
2019-05-07T01:29:06.064Z,8.20
2019-05-07T01:31:37.788Z,8.20
2019-05-07T01:34:27.290Z,8.20
2019-05-07T01:36:56.986Z,8.20
2019-05-07T01:39:26.719Z,8.20
2019-05-07T01:41:56.367Z,8.10
2019-05-07T01:44:26.038Z,8.10
2019-05-07T01:46:55.676Z,8.00
2019-05-07T01:49:25.476Z,8.10
2019-05-07T01:51:55.300Z,8.00
2019-05-07T01:54:24.978Z,7.90
2019-05-07T01:56:54.634Z,7.90
2019-05-07T01:59:24.420Z,7.90
2019-05-07T02:01:55.694Z,7.90
2019-05-07T02:04:42.742Z,7.80
2019-05-07T02:07:16.966Z,7.70
2019-05-07T02:09:48.369Z,7.60
2019-05-07T02:12:19.682Z,7.60
2019-05-07T02:14:49.379Z,7.50
2019-05-07T02:17:19.079Z,7.50
2019-05-07T02:19:48.787Z,7.40
2019-05-07T02:22:18.526Z,7.40
2019-05-07T02:24:48.236Z,7.40
2019-05-07T02:27:17.902Z,7.40
2019-05-07T02:29:47.585Z,7.40
2019-05-07T02:32:17.399Z,7.40
2019-05-07T02:34:47.121Z,7.30
2019-05-07T02:37:18.556Z,7.30
2019-05-07T02:39:48.071Z,7.30
2019-05-07T02:42:17.756Z,7.20
2019-05-07T02:45:04.165Z,7.20
2019-05-07T02:47:34.038Z,7.10
2019-05-07T02:50:06.581Z,7.10
2019-05-07T02:52:54.042Z,7.10
2019-05-07T02:55:28.233Z,7.00
2019-05-07T02:57:57.970Z,6.90
2019-05-07T03:00:27.784Z,6.90
2019-05-07T03:02:57.771Z,6.90
2019-05-07T03:05:27.561Z,7.00
2019-05-07T03:07:57.322Z,7.00
2019-05-07T03:10:27.232Z,7.00
2019-05-07T03:12:56.973Z,7.00
2019-05-07T03:15:26.618Z,7.10
2019-05-07T03:17:56.513Z,7.10
2019-05-07T03:20:33.362Z,7.00
2019-05-07T03:23:03.239Z,6.90
2019-05-07T03:25:48.040Z,6.90
2019-05-07T03:28:18.968Z,6.90
2019-05-07T03:30:59.069Z,6.90
2019-05-07T03:33:39.519Z,6.90
2019-05-07T03:36:16.671Z,7.00
2019-05-07T03:38:44.165Z,7.00
2019-05-07T03:41:13.880Z,7.10
2019-05-07T03:43:44.202Z,7.10
2019-05-07T03:46:15.474Z,7.20
2019-05-07T03:48:46.568Z,7.20
2019-05-07T03:51:16.273Z,7.30
2019-05-07T03:53:46.036Z,7.30
2019-05-07T03:56:15.704Z,7.30
2019-05-07T03:58:45.409Z,7.20
2019-05-07T04:01:15.081Z,7.20
2019-05-07T04:03:46.319Z,7.20
2019-05-07T04:06:16.105Z,7.20
2019-05-07T04:08:45.879Z,7.30
2019-05-07T04:11:15.690Z,7.30
2019-05-07T04:13:45.639Z,7.40
2019-05-07T04:16:15.628Z,7.40
2019-05-07T04:18:45.372Z,7.30
2019-05-07T04:21:15.073Z,7.20
2019-05-07T04:23:44.777Z,7.20
2019-05-07T04:26:23.216Z,7.20
2019-05-07T04:29:04.879Z,7.20
2019-05-07T04:31:34.393Z,7.30
2019-05-07T04:34:06.412Z,7.30
2019-05-07T04:36:37.855Z,7.30
2019-05-07T04:39:09.247Z,7.30
2019-05-07T04:41:38.986Z,7.40
2019-05-07T04:44:08.842Z,7.40
2019-05-07T04:46:38.726Z,7.40
2019-05-07T04:49:08.578Z,7.40
2019-05-07T04:51:43.108Z,7.40
2019-05-07T04:54:13.143Z,7.40
2019-05-07T04:56:44.069Z,7.50
2019-05-07T04:59:13.768Z,7.50
2019-05-07T05:01:45.091Z,7.60
2019-05-07T05:04:25.458Z,7.70
2019-05-07T05:06:46.211Z,7.70
2019-05-07T05:09:16.245Z,7.70
2019-05-07T05:11:46.964Z,7.80
2019-05-07T05:14:16.785Z,7.90
2019-05-07T05:16:46.480Z,8.00
2019-05-07T05:19:34.311Z,8.10
2019-05-07T05:22:08.622Z,8.30
2019-05-07T05:24:48.886Z,8.40
2019-05-07T05:27:18.603Z,8.50
2019-05-07T05:29:48.382Z,8.60
2019-05-07T05:32:18.044Z,8.70
2019-05-07T05:34:47.839Z,8.70
2019-05-07T05:37:17.509Z,8.80
2019-05-07T05:39:47.206Z,8.90
2019-05-07T05:42:27.351Z,8.90
2019-05-07T05:44:57.105Z,9.10
2019-05-07T05:47:26.846Z,9.20
2019-05-07T05:49:56.524Z,9.40
2019-05-07T05:52:27.818Z,9.40
2019-05-07T05:54:59.266Z,9.50
2019-05-07T05:57:32.296Z,9.50
2019-05-07T06:00:13.870Z,9.60
2019-05-07T06:02:53.157Z,9.60
2019-05-07T06:05:42.846Z,9.60
2019-05-07T06:08:17.637Z,9.60
2019-05-07T06:10:49.193Z,9.60
2019-05-07T06:13:36.243Z,9.70
2019-05-07T06:16:07.590Z,9.80
2019-05-07T06:18:47.729Z,9.70
2019-05-07T06:21:26.333Z,9.80
2019-05-07T06:23:57.625Z,9.90
2019-05-07T06:26:27.468Z,9.90
2019-05-07T06:28:57.289Z,10.00
2019-05-07T06:31:27.158Z,10.00
2019-05-07T06:33:56.843Z,9.80
2019-05-07T06:36:29.633Z,9.90
2019-05-07T06:39:03.719Z,9.90
2019-05-07T06:41:52.560Z,9.90
2019-05-07T06:44:23.259Z,10.00
2019-05-07T06:46:52.943Z,10.10
2019-05-07T06:49:22.750Z,10.20
2019-05-07T06:51:52.934Z,10.30
2019-05-07T06:54:22.857Z,10.40
2019-05-07T06:56:52.668Z,10.40
2019-05-07T06:59:42.440Z,10.50
2019-05-07T07:02:25.336Z,10.70
2019-05-07T07:04:56.822Z,10.80
2019-05-07T07:07:37.296Z,10.80
2019-05-07T07:10:11.953Z,10.90
2019-05-07T07:12:42.462Z,11.00
2019-05-07T07:15:12.566Z,11.10
2019-05-07T07:17:42.731Z,11.10
2019-05-07T07:20:14.124Z,11.20
2019-05-07T07:22:43.943Z,11.30
2019-05-07T07:25:13.858Z,11.30
2019-05-07T07:27:43.600Z,11.40
2019-05-07T07:30:32.625Z,11.50
2019-05-07T07:33:04.074Z,11.60
2019-05-07T07:35:33.837Z,11.60
2019-05-07T07:38:05.340Z,11.60
2019-05-07T07:40:39.452Z,11.60
2019-05-07T07:43:09.274Z,11.70
2019-05-07T07:45:39.306Z,11.60
2019-05-07T07:48:09.025Z,11.60
2019-05-07T07:50:38.921Z,11.80
2019-05-07T07:53:08.637Z,12.00
2019-05-07T07:55:39.966Z,11.90
2019-05-07T07:58:12.069Z,11.80
2019-05-07T08:00:42.858Z,11.90
2019-05-07T08:03:14.342Z,12.00
2019-05-07T08:05:44.245Z,12.10
2019-05-07T08:08:13.972Z,12.10
2019-05-07T08:10:44.265Z,12.00
2019-05-07T08:13:14.044Z,11.90
2019-05-07T08:15:43.865Z,11.80
2019-05-07T08:18:13.686Z,11.70
2019-05-07T08:20:43.618Z,11.60
2019-05-07T08:23:13.516Z,11.60
2019-05-07T08:25:48.981Z,11.60
2019-05-07T08:28:22.786Z,11.60
2019-05-07T08:30:53.466Z,11.60
2019-05-07T08:33:24.835Z,11.50
2019-05-07T08:36:14.308Z,11.50
2019-05-07T08:38:52.834Z,11.50
2019-05-07T08:41:24.901Z,11.70
2019-05-07T08:44:08.309Z,11.60
2019-05-07T08:46:33.016Z,11.70
2019-05-07T08:49:02.812Z,11.70
2019-05-07T08:51:32.751Z,11.70
2019-05-07T08:54:05.211Z,11.70
2019-05-07T08:56:38.484Z,11.90
2019-05-07T08:59:08.778Z,11.90
2019-05-07T09:01:43.279Z,11.80
2019-05-07T09:04:13.420Z,11.80
2019-05-07T09:06:43.433Z,11.90
2019-05-07T09:09:14.795Z,11.90
2019-05-07T09:11:44.693Z,11.90
2019-05-07T09:14:14.647Z,11.80
2019-05-07T09:16:44.366Z,11.90
2019-05-07T09:19:14.146Z,12.00
2019-05-07T09:21:44.102Z,12.00
2019-05-07T09:24:14.149Z,11.90
2019-05-07T09:26:49.486Z,11.80
2019-05-07T09:29:37.247Z,11.80
2019-05-07T09:32:24.865Z,11.80
2019-05-07T09:34:56.264Z,11.90
2019-05-07T09:37:33.225Z,11.90
2019-05-07T09:40:03.180Z,11.90
2019-05-07T09:42:33.498Z,11.80
2019-05-07T09:45:04.192Z,11.70
2019-05-07T09:47:33.889Z,11.80
2019-05-07T09:50:08.024Z,11.80
2019-05-07T09:52:36.175Z,11.70
2019-05-07T09:55:14.904Z,11.70
2019-05-07T09:57:39.531Z,11.80
2019-05-07T10:00:12.375Z,11.80
2019-05-07T10:02:42.669Z,11.60
2019-05-07T10:05:14.044Z,11.40
2019-05-07T10:07:43.964Z,11.00
2019-05-07T10:10:14.159Z,10.90
2019-05-07T10:12:45.745Z,10.90
2019-05-07T10:15:15.977Z,10.80
2019-05-07T10:17:47.692Z,10.80
2019-05-07T10:20:22.382Z,10.80
2019-05-07T10:22:51.873Z,10.80
2019-05-07T10:25:22.437Z,10.90
2019-05-07T10:27:53.207Z,10.90
2019-05-07T10:30:23.213Z,11.00
2019-05-07T10:32:53.182Z,11.00
2019-05-07T10:35:23.631Z,11.10
2019-05-07T10:37:53.358Z,11.10
2019-05-07T10:40:24.323Z,11.10
2019-05-07T10:42:54.270Z,11.00
2019-05-07T10:45:26.794Z,10.90
2019-05-07T10:47:56.557Z,11.10
2019-05-07T10:50:38.366Z,11.00
2019-05-07T10:53:02.525Z,11.00
2019-05-07T10:55:33.847Z,11.00
2019-05-07T10:58:03.579Z,11.00
2019-05-07T11:00:33.396Z,11.00
2019-05-07T11:03:03.139Z,11.00
2019-05-07T11:05:32.998Z,11.10
2019-05-07T11:08:02.837Z,11.00
2019-05-07T11:10:32.833Z,11.00
2019-05-07T11:13:02.730Z,10.90
2019-05-07T11:15:33.414Z,10.90
2019-05-07T11:18:05.141Z,10.80
2019-05-07T11:20:46.559Z,10.90
2019-05-07T11:23:06.459Z,10.90
2019-05-07T11:25:36.338Z,11.00
2019-05-07T11:28:06.483Z,11.10
2019-05-07T11:30:36.598Z,11.20
2019-05-07T11:33:06.516Z,11.30
2019-05-07T11:35:36.259Z,11.20
2019-05-07T11:38:17.748Z,11.30
2019-05-07T11:40:37.619Z,11.30
2019-05-07T11:43:13.054Z,11.40
2019-05-07T11:46:01.561Z,11.50
2019-05-07T11:48:33.559Z,11.70
2019-05-07T11:51:06.663Z,11.80
2019-05-07T11:53:41.910Z,11.90
2019-05-07T11:56:12.001Z,12.20
2019-05-07T11:58:42.074Z,12.30
2019-05-07T12:01:16.304Z,12.40
2019-05-07T12:03:45.995Z,12.50
2019-05-07T12:06:15.773Z,12.40
2019-05-07T12:08:51.387Z,12.50
2019-05-07T12:11:17.450Z,12.80
2019-05-07T12:13:47.210Z,12.80
2019-05-07T12:16:16.933Z,12.90
2019-05-07T12:18:46.641Z,13.10
2019-05-07T12:21:21.130Z,13.30
2019-05-07T12:23:47.981Z,13.40
2019-05-07T12:26:17.744Z,13.50
2019-05-07T12:28:47.578Z,13.60
2019-05-07T12:31:35.096Z,13.80
2019-05-07T12:34:06.515Z,14.00
2019-05-07T12:36:36.261Z,14.00
2019-05-07T12:39:08.819Z,14.00
2019-05-07T12:41:38.714Z,13.90
2019-05-07T12:44:13.001Z,13.90
2019-05-07T12:46:43.015Z,14.00
2019-05-07T12:49:12.927Z,14.00
2019-05-07T12:51:53.660Z,13.90
2019-05-07T12:54:42.067Z,13.90
2019-05-07T12:57:12.405Z,13.90
2019-05-07T12:59:42.681Z,14.00
2019-05-07T13:02:39.861Z,14.20
2019-05-07T13:05:02.907Z,14.20
2019-05-07T13:07:32.644Z,14.30
2019-05-07T13:10:02.734Z,14.40
2019-05-07T13:12:32.534Z,14.60
2019-05-07T13:15:02.937Z,14.60
2019-05-07T13:17:33.758Z,14.70
2019-05-07T13:20:05.385Z,14.80
2019-05-07T13:22:35.213Z,14.80
2019-05-07T13:25:06.903Z,15.00
2019-05-07T13:27:36.681Z,15.20
2019-05-07T13:30:07.781Z,15.30
2019-05-07T13:32:38.826Z,15.30
2019-05-07T13:35:09.508Z,15.30
2019-05-07T13:37:45.462Z,15.30
2019-05-07T13:40:21.948Z,15.50
2019-05-07T13:42:53.648Z,15.70
2019-05-07T13:45:27.610Z,15.90
2019-05-07T13:48:17.587Z,15.70
2019-05-07T13:50:47.690Z,15.80
2019-05-07T13:53:17.796Z,15.90
2019-05-07T13:55:47.670Z,15.70
2019-05-07T13:58:17.672Z,15.70
2019-05-07T14:00:59.416Z,16.00
2019-05-07T14:03:29.320Z,16.20
2019-05-07T14:05:59.345Z,16.30
2019-05-07T14:08:32.038Z,16.30
2019-05-07T14:11:02.764Z,16.00
2019-05-07T14:13:33.311Z,16.00
2019-05-07T14:16:09.371Z,15.90
2019-05-07T14:18:39.966Z,15.80
2019-05-07T14:21:12.804Z,15.60
2019-05-07T14:23:42.790Z,15.30
2019-05-07T14:26:12.675Z,15.10
2019-05-07T14:28:42.636Z,14.90
2019-05-07T14:31:12.455Z,14.70
2019-05-07T14:33:41.941Z,14.60
2019-05-07T14:36:19.323Z,14.40
2019-05-07T14:38:52.022Z,14.20
2019-05-07T14:41:25.291Z,13.90
2019-05-07T14:43:56.087Z,13.90
2019-05-07T14:46:25.952Z,13.70
2019-05-07T14:48:55.910Z,13.60
2019-05-07T14:51:25.792Z,13.50
2019-05-07T14:53:55.768Z,13.30
2019-05-07T14:56:25.581Z,13.30
2019-05-07T14:58:55.623Z,13.50
2019-05-07T15:01:25.957Z,13.50
2019-05-07T15:03:55.907Z,13.60
2019-05-07T15:06:26.008Z,13.70
2019-05-07T15:08:56.603Z,13.80
2019-05-07T15:11:26.671Z,13.70
2019-05-07T15:13:56.505Z,13.80
2019-05-07T15:16:26.558Z,13.80
2019-05-07T15:18:57.633Z,13.90
2019-05-07T15:21:27.699Z,13.90
2019-05-07T15:23:57.615Z,13.90
2019-05-07T15:26:27.608Z,13.90
2019-05-07T15:29:02.289Z,13.90
2019-05-07T15:31:34.856Z,13.90
2019-05-07T15:34:04.677Z,13.90
2019-05-07T15:36:34.372Z,14.00
2019-05-07T15:39:05.184Z,14.00
2019-05-07T15:41:35.009Z,13.90
2019-05-07T15:44:04.882Z,13.90
2019-05-07T15:46:34.708Z,14.00
2019-05-07T15:49:04.580Z,14.10
2019-05-07T15:51:34.370Z,14.10
2019-05-07T15:54:04.258Z,14.20
2019-05-07T15:56:34.071Z,14.20
2019-05-07T15:59:03.785Z,14.40
2019-05-07T16:01:33.589Z,14.40
2019-05-07T16:04:03.486Z,14.40
2019-05-07T16:06:33.277Z,14.20
2019-05-07T16:09:04.665Z,14.20
2019-05-07T16:11:34.603Z,14.20
2019-05-07T16:14:04.465Z,14.00
2019-05-07T16:16:35.960Z,14.00
2019-05-07T16:19:12.486Z,14.10
2019-05-07T16:21:42.615Z,14.00
2019-05-07T16:24:12.499Z,13.90
2019-05-07T16:26:42.406Z,14.00
2019-05-07T16:29:13.320Z,13.90
2019-05-07T16:31:44.218Z,13.90
2019-05-07T16:34:14.170Z,13.80
2019-05-07T16:36:44.512Z,13.90
2019-05-07T16:39:14.333Z,14.00
2019-05-07T16:41:44.101Z,14.20
2019-05-07T16:44:13.815Z,14.30
2019-05-07T16:46:43.569Z,14.50
2019-05-07T16:49:13.565Z,14.60
2019-05-07T16:51:44.685Z,14.40
2019-05-07T16:54:14.646Z,14.30
2019-05-07T16:57:03.119Z,14.20
2019-05-07T16:59:32.997Z,14.20
2019-05-07T17:02:04.402Z,14.10
2019-05-07T17:04:34.059Z,14.10
2019-05-07T17:07:05.438Z,14.10
2019-05-07T17:09:35.574Z,14.00
2019-05-07T17:12:06.971Z,13.80
2019-05-07T17:14:36.712Z,13.80
2019-05-07T17:17:06.446Z,13.60
2019-05-07T17:19:36.137Z,13.60
2019-05-07T17:22:06.627Z,13.50
2019-05-07T17:24:36.554Z,13.40
2019-05-07T17:27:06.340Z,13.40
2019-05-07T17:29:36.192Z,13.30
2019-05-07T17:32:06.005Z,13.30
2019-05-07T17:34:35.712Z,13.20
2019-05-07T17:37:05.448Z,13.20
2019-05-07T17:39:35.212Z,13.10
2019-05-07T17:42:05.091Z,13.00
2019-05-07T17:44:34.824Z,12.90
2019-05-07T17:47:04.694Z,12.90
2019-05-07T17:49:36.486Z,12.90
2019-05-07T17:52:05.932Z,12.80
2019-05-07T17:54:35.601Z,12.80
2019-05-07T17:57:05.338Z,12.70
2019-05-07T17:59:35.030Z,12.70
2019-05-07T18:02:08.951Z,12.70
2019-05-07T18:04:50.613Z,12.70
2019-05-07T18:07:11.942Z,12.60
2019-05-07T18:09:42.388Z,12.60
2019-05-07T18:12:12.476Z,12.50
2019-05-07T18:14:42.506Z,12.50
2019-05-07T18:17:14.038Z,12.40
2019-05-07T18:19:44.773Z,12.40
2019-05-07T18:22:14.851Z,12.30
2019-05-07T18:24:44.603Z,12.30
2019-05-07T18:27:16.108Z,12.20
2019-05-07T18:29:45.775Z,12.20
2019-05-07T18:32:15.430Z,12.10
2019-05-07T18:34:45.177Z,12.00
2019-05-07T18:37:15.052Z,12.00
2019-05-07T18:39:44.822Z,12.00
2019-05-07T18:42:14.660Z,11.90
2019-05-07T18:44:44.545Z,11.90
2019-05-07T18:47:14.295Z,11.90
2019-05-07T18:49:44.860Z,11.90
2019-05-07T18:52:14.727Z,11.80
2019-05-07T18:54:44.440Z,11.70
2019-05-07T18:57:14.292Z,11.60
2019-05-07T18:59:45.543Z,11.60
2019-05-07T19:02:15.978Z,11.50
2019-05-07T19:04:45.780Z,11.50
2019-05-07T19:07:18.038Z,11.40
2019-05-07T19:09:47.936Z,11.30
2019-05-07T19:12:18.111Z,11.20
2019-05-07T19:14:47.907Z,11.20
2019-05-07T19:17:17.877Z,11.10
2019-05-07T19:19:47.535Z,11.00
2019-05-07T19:22:17.223Z,10.90
2019-05-07T19:24:48.154Z,10.80
2019-05-07T19:27:18.159Z,10.80
2019-05-07T19:29:47.838Z,10.70
2019-05-07T19:32:17.832Z,10.60
2019-05-07T19:34:48.018Z,10.60
2019-05-07T19:37:17.730Z,10.50
2019-05-07T19:39:47.532Z,10.40
2019-05-07T19:42:17.286Z,10.40
2019-05-07T19:44:46.984Z,10.30
2019-05-07T19:47:16.870Z,10.30
2019-05-07T19:49:46.639Z,10.20
2019-05-07T19:52:16.313Z,10.30
2019-05-07T19:54:58.004Z,10.20
2019-05-07T19:57:23.113Z,10.20
2019-05-07T19:59:53.064Z,10.20
2019-05-07T20:02:26.938Z,10.20
2019-05-07T20:04:56.055Z,10.20
2019-05-07T20:07:25.726Z,10.10
2019-05-07T20:09:55.526Z,10.00
2019-05-07T20:12:25.307Z,10.00
2019-05-07T20:14:54.960Z,9.90
2019-05-07T20:17:24.735Z,9.90
2019-05-07T20:19:54.478Z,9.90
2019-05-07T20:22:24.252Z,9.90
2019-05-07T20:24:53.899Z,9.80
2019-05-07T20:27:23.605Z,9.80
2019-05-07T20:29:53.603Z,9.70
2019-05-07T20:32:23.423Z,9.70
2019-05-07T20:34:53.398Z,9.60
2019-05-07T20:37:23.128Z,9.50
2019-05-07T20:39:52.815Z,9.50
2019-05-07T20:42:23.210Z,9.40
2019-05-07T20:44:53.998Z,9.30
2019-05-07T20:47:23.658Z,9.30
2019-05-07T20:49:53.462Z,9.30
2019-05-07T20:52:23.385Z,9.20
2019-05-07T20:55:00.557Z,9.20
2019-05-07T20:57:32.081Z,9.10
2019-05-07T21:00:02.765Z,9.10
2019-05-07T21:02:44.379Z,9.10
2019-05-07T21:05:05.091Z,9.00
2019-05-07T21:07:35.137Z,9.00
2019-05-07T21:10:06.650Z,9.00
2019-05-07T21:12:36.461Z,8.90
2019-05-07T21:15:08.146Z,8.90
2019-05-07T21:17:37.892Z,8.80
2019-05-07T21:20:08.835Z,8.80
2019-05-07T21:22:38.518Z,8.80
2019-05-07T21:25:08.259Z,8.70
2019-05-07T21:27:37.922Z,8.80
2019-05-07T21:30:08.352Z,8.70
2019-05-07T21:32:37.996Z,8.80
2019-05-07T21:35:07.840Z,8.80
2019-05-07T21:37:37.588Z,8.80
2019-05-07T21:40:08.294Z,8.80
2019-05-07T21:42:38.035Z,8.90
2019-05-07T21:45:08.934Z,8.90
2019-05-07T21:47:38.726Z,8.90
2019-05-07T21:50:09.617Z,8.90
2019-05-07T21:52:43.799Z,8.90
2019-05-07T21:55:15.485Z,8.90
2019-05-07T21:57:54.529Z,8.80
2019-05-07T22:00:26.102Z,8.70
2019-05-07T22:02:56.350Z,8.70
2019-05-07T22:05:26.170Z,8.70
2019-05-07T22:07:56.024Z,8.70
2019-05-07T22:10:25.664Z,8.70
2019-05-07T22:12:55.340Z,8.70
2019-05-07T22:15:25.036Z,8.80
2019-05-07T22:17:54.735Z,8.80
2019-05-07T22:20:24.545Z,8.80
2019-05-07T22:22:54.297Z,8.80
2019-05-07T22:25:23.975Z,8.80
2019-05-07T22:27:53.687Z,8.80
2019-05-07T22:30:25.118Z,8.90
2019-05-07T22:32:58.909Z,8.90
2019-05-07T22:35:32.908Z,8.90
2019-05-07T22:38:03.908Z,8.90
2019-05-07T22:40:33.813Z,8.90
2019-05-07T22:43:03.493Z,9.00
2019-05-07T22:45:33.227Z,9.00
2019-05-07T22:48:03.027Z,9.10
2019-05-07T22:50:33.248Z,9.10
2019-05-07T22:53:03.177Z,9.10
2019-05-07T22:55:32.903Z,9.10
2019-05-07T22:58:06.738Z,9.20
2019-05-07T23:00:42.693Z,9.20
2019-05-07T23:03:12.797Z,9.20
2019-05-07T23:05:44.838Z,9.30
2019-05-07T23:08:13.887Z,9.30
2019-05-07T23:10:44.611Z,9.30
2019-05-07T23:13:14.402Z,9.30
2019-05-07T23:15:44.115Z,9.30
2019-05-07T23:18:13.801Z,9.30
2019-05-07T23:20:43.495Z,9.40
2019-05-07T23:23:14.225Z,9.40
2019-05-07T23:25:44.047Z,9.40
2019-05-07T23:28:13.742Z,9.40
2019-05-07T23:30:44.272Z,9.40
2019-05-07T23:33:14.178Z,9.40
2019-05-07T23:35:43.959Z,9.40
2019-05-07T23:38:15.885Z,9.50
2019-05-07T23:40:58.635Z,9.50
2019-05-07T23:43:28.475Z,9.50
2019-05-07T23:45:58.219Z,9.50
2019-05-07T23:48:27.977Z,9.50
2019-05-07T23:50:57.695Z,9.50
2019-05-07T23:53:27.443Z,9.50
2019-05-07T23:55:57.121Z,9.50
2019-05-07T23:58:26.831Z,9.50
